AirNav   Everest Fuels
 
 1017 users online  

AL84 Pecan Ponds Farm Airport
Robertsdale, Alabama, USA

GOING TO ROBERTSDALE?


FAA INFORMATION EFFECTIVE 03 JANUARY 2019

Location

FAA Identifier: AL84
Lat/Long: 30-33-30.6970N / 087-36-14.9450W
30-33.511617N / 087-36.249083W
30.5585269 / -87.6041514
(estimated)
Elevation: 125 ft. / 38 m (estimated)
Variation: 01E (1985)
From city: 9 miles E of ROBERTSDALE, AL
Time zone: UTC -6 (UTC -5 during Daylight Saving Time)
Zip code: 36567

Airport Operations

Airport use: Private use. Permission required prior to landing
Activation date: 08/1988
Control tower: no
ARTCC: JACKSONVILLE CENTER
FSS: ANNISTON FLIGHT SERVICE STATION
Attendance: UNATNDD
Wind indicator: yes
Segmented circle: yes

Airport Communications

WX AWOS-3PT at CQF (15 nm SW): 118.425 (251-928-3242)
WX AWOS-3PT at JKA (17 nm S): 134.525 (251-968-7581)

Nearby radio navigation aids

VOR radial/distance  VOR name  Freq  Var
NUNr289/(14.8)SAUFLEY VOR108.8001E
BFMr094/23.5BROOKLEY VORTAC112.8004E

 
NDB name  Hdg/Dist  Freq  Var  ID
PICKENS290/23.232602WPKZ .--. -.- --..
WISLE110/38.124801WMOB -- --- -...

Airport Services

Runway Information

Runway 9/27

Dimensions: 2750 x 140 ft. / 838 x 43 m
Surface: turf
RUNWAY 9  RUNWAY 27
Traffic pattern: rightleft

Airport Ownership and Management from official FAA records

Ownership: Privately-owned
Owner: SHELIA DAVIDSON
26550 HIGHWAY 90
ROBERTSDALE, AL 36567
Phone (850) 380-4841

Airport Operational Statistics

Aircraft based on the field: 2
Single engine airplanes: 2
    

Additional Remarks

AIRSTRIP NOT IN USE AT THIS TIME.

Instrument Procedures

There are no published instrument procedures at AL84.

Some nearby airports with instrument procedures:

5R4 - Foley Municipal Airport (9 nm SW)
KCQF - H L Sonny Callahan Airport (15 nm SW)
KJKA - Jack Edwards National Airport (17 nm S)
KNPA - Pensacola Naval Air Station/Forrest Sherman Field (19 nm SE)
1R8 - Bay Minette Municipal Airport (22 nm NW)
 
Loc | Ops | Rwys | IFR | FBO | Links
Com | Nav | Svcs | Stats | Notes

Continental Motors
AirBoss

 
Area around AL84 (Pecan Ponds Farm Airport)
 
Road maps at: MapQuest Bing Google
 
Aerial photo
No photo
 
Sectional chart

 
Airport distance calculator
Flying to Pecan Ponds Farm Airport? Find the distance to fly.

From to AL84

Sunrise and sunset
Times for 21-Jan-2019
 Local
(UTC-6)
 Zulu
(UTC)
Morning civil twilight06:2212:22
Sunrise06:4812:48
Sunset17:1623:16
Evening civil twilight17:4223:42

Current date and time
Zulu (UTC)  22-Jan-2019 01:02:15
Local (UTC-6)  21-Jan-2019 19:02:15
 
METAR
KCQF 
15nm SW 
220055Z AUTO 00000KT 10SM CLR 03/01 A3034 RMK AO2
KJKA 
17nm S 
220055Z AUTO 00000KT 10SM CLR 05/M14 A3033 RMK AO2 T00471138
KNPA 
19nm SE 
220056Z AUTO 00000KT 10SM CLR 05/03 A3033 RMK AO2 SLP272 T00500028 $
KPNS 
22nm E 
220053Z 04004KT 10SM CLR 09/00 A3033 RMK AO2 SLP274 T00940000
KBFM 
24nm W 
220053Z 06007KT 10SM CLR 11/02 A3035 RMK AO2 SLP277 T01060017
TAF
KNPA 
19nm SE 
2123/2223 VRB06KT 9999 SKC QNH3030INS BECMG 2206/2208 11011KT SCT010 BKN020 OVC030 QNH3028INS BECMG 2209/2211 12011KT 6000 BR SCT005 BKN010 OVC020 QNH3022INS BECMG 2218/2220 12015KT 9999 NSW BKN030 OVC060 QNH3019INS AUTOMATED SENSOR METWATCH 2123 TIL 2211 T05/2203Z T18/2221Z FN00197
KPNS 
22nm E 
211720Z 2118/2218 03009KT P6SM FEW250 FM220900 12008KT P6SM BKN025
KBFM 
24nm W 
211724Z 2118/2218 04008KT P6SM SCT250 FM220900 10009KT P6SM BKN025
NOTAMs
Click for the latest NOTAMs
NOTAMs are issued by the DoD/FAA and will open in a separate window not controlled by AirNav.

 

 
 

Would you like to see your business listed on this page?

 If your business provides an interesting product or service to pilots, flight crews, aircraft, or users of the Pecan Ponds Farm Airport, you should consider listing it here.  To start the listing process, click on the button below
 
Add a business
 

Other Pages about Pecan Ponds Farm Airport

Update a link
 
Copyright © AirNav, LLC. All rights reserved. Privacy Policy  Contact